Flight Track Log - Related Links

Times and Time Zones

All times are in EDT time to prevent confusion due to time zone crossing. See the SWA3505 flight status page for this flight to view local times or setup timezone preferences in your user account.

Time Position Orientation Groundspeed Altitude Reporting Facility
EDT Latitude Longitude Course Direction KTS MPH feet Rate Location/Type
Sat 01:00:14 PM 45.5942 -122.5978 296° West 150 173 500  Level Seattle Center
Sat 01:00:45 PM 45.6044 -122.6275 296° West 170 196 1,400 2,044 Climbing Seattle Center
Sat 01:01:45 PM 45.6311 -122.7061 296° West 246 283 3,600 2,092 Climbing Seattle Center
Sat 01:02:34 PM 45.6567 -122.7700 300° West 260 299 5,200 2,942 Climbing Seattle Center
Sat 01:03:29 PM 45.6394 -122.8633 255° West 310 357 8,700 3,207 Climbing Seattle Center
Sat 01:04:30 PM 45.5503 -122.8825 189° South 331 381 11,400 2,852 Climbing Seattle Center
Sat 01:05:31 PM 45.4464 -122.9136 192° South 380 437 14,500 3,098 Climbing Seattle Center
Sat 01:06:32 PM 45.3381 -122.9408 190° South 394 453 17,700 2,852 Climbing Seattle Center
Sat 01:07:33 PM 45.2219 -122.9694 190° South 420 483 20,300 2,380 Climbing Seattle Center
Sat 01:08:33 PM 45.0972 -122.9992 190° South 452 520 22,500 2,331 Climbing Seattle Center
Sat 01:09:34 PM 44.9661 -123.0294 189° South 473 544 25,000 2,213 Climbing Seattle Center
Sat 01:10:35 PM 44.8322 -123.0583 189° South 478 550 27,000 1,869 Climbing Seattle Center
Sat 01:11:36 PM 44.6936 -123.0892 189° South 490 564 28,800 1,770 Climbing Seattle Center
Sat 01:12:37 PM 44.5506 -123.1233 190° South 509 586 30,600 1,721 Climbing Seattle Center
Sat 01:13:38 PM 44.4050 -123.1308 182° South 519 597 32,300 1,820 Climbing Seattle Center
Sat 01:14:39 PM 44.2650 -123.1247 178° South 511 588 34,300 1,574 Climbing Seattle Center
Sat 01:15:40 PM 44.1214 -123.1203 179° South 513 590 35,500 1,388 Climbing Seattle Center
Sat 01:16:40 PM 43.9697 -123.1161 179° South 514 592 37,100 1,388 Climbing Seattle Center
Sat 01:17:41 PM 43.8283 -123.1111 179° South 509 586 38,300 836 Climbing Seattle Center
Sat 01:18:42 PM 43.6831 -123.1058 178° South 520 598 38,800 344 Climbing Seattle Center
Sat 01:19:43 PM 43.5367 -123.0994 178° South 525 604 39,000 -344 Climbing Seattle Center
Sat 01:20:44 PM 43.3931 -123.0939 178° South 517 595 38,100 -885 Descending Seattle Center
Sat 01:21:45 PM 43.2489 -123.0900 179° South 518 596 37,200 -541 Descending Seattle Center
Sat 01:22:46 PM 43.1069 -123.0853 179° South 511 588 37,000 -99 Descending Seattle Center
Sat 01:23:46 PM 42.9378 -123.0778 178° South 508 585 37,000  Level Seattle Center
Sat 01:24:47 PM 42.7947 -123.0728 179° South 512 589 37,000  Level Seattle Center
Sat 01:25:48 PM 42.6589 -123.0689 179° South 516 594 37,000  Level Seattle Center
Sat 01:26:49 PM 42.5164 -123.0658 179° South 517 595 37,000  Level Seattle Center
Sat 01:27:50 PM 42.3736 -123.0603 178° South 514 592 37,000  Level Seattle Center
Sat 01:28:51 PM 42.2322 -123.0556 179° South 512 589 37,000  Level Seattle Center
Sat 01:29:52 PM 42.0914 -123.0508 179° South 510 587 37,000  Level Seattle Center
Sat 01:30:52 PM 41.9525 -123.0475 179° South 504 580 37,000  Level Seattle Center
Sat 01:31:53 PM 41.8147 -123.0433 179° South 499 574 37,000  Level Seattle Center
Sat 01:32:54 PM 41.6769 -123.0350 177° South 498 573 37,000  Level Seattle Center
Sat 01:33:55 PM 41.5411 -123.0292 178° South 493 567 37,000  Level Seattle Center
Sat 01:34:56 PM 41.3811 -123.0244 179° South 486 559 37,000  Level Seattle Center
Sat 01:35:57 PM 41.2453 -123.0189 178° South 487 560 37,000  Level Seattle Center
Sat 01:36:58 PM 41.1083 -123.0117 178° South 490 564 37,000  Level Seattle Center
Sat 01:37:58 PM 40.9703 -123.0033 177° South 493 567 37,000  Level Seattle Center
Sat 01:38:48 PM 40.8614 -122.9978 178° South 493 567 37,000  Level Oakland Center
Sat 01:39:49 PM 40.7192 -122.9917 178° South 491 565 37,000  Level Oakland Center
Sat 01:40:50 PM 40.5836 -122.9856 178° South 491 565 37,000  Level Oakland Center
Sat 01:41:51 PM 40.4472 -122.9786 178° South 493 567 37,000  Level Oakland Center
Sat 01:42:53 PM 40.3106 -122.9711 178° South 495 570 37,000  Level Oakland Center
Sat 01:43:54 PM 40.1742 -122.9664 178° South 495 570 37,000  Level Oakland Center
Sat 01:44:55 PM 40.0128 -122.9583 178° South 490 564 37,000  Level Oakland Center
Sat 01:45:56 PM 39.8792 -122.9531 178° South 486 559 37,000  Level Oakland Center
Sat 01:46:58 PM 39.7428 -122.9458 178° South 492 566 37,000  Level Oakland Center
Sat 01:47:59 PM 39.6036 -122.9386 178° South 501 577 37,000  Level Oakland Center
Sat 01:49:00 PM 39.4539 -122.9322 178° South 498 573 37,000  Level Oakland Center
Sat 01:50:01 PM 39.3214 -122.9228 177° South 484 557 37,000  Level Oakland Center
Sat 01:51:03 PM 39.1856 -122.9158 178° South 488 562 37,000 -195 Level Oakland Center
Sat 01:52:04 PM 39.0503 -122.9103 178° South 487 560 36,600 -1,426 Descending Oakland Center
Sat 01:53:05 PM 38.9144 -122.9036 178° South 488 562 34,100 -2,311 Descending Oakland Center
Sat 01:54:06 PM 38.7819 -122.8972 178° South 480 552 31,900 -2,049 Descending Oakland Center
Sat 01:55:08 PM 38.6522 -122.8944 179° South 471 542 29,900 -1,951 Descending Oakland Center
Sat 01:56:09 PM 38.5264 -122.8897 178° South 458 527 27,900 -1,967 Descending Oakland Center
Sat 01:57:10 PM 38.4033 -122.8842 178° South 447 514 25,900 -2,115 Descending Oakland Center
Sat 01:58:11 PM 38.2600 -122.8764 178° South 433 498 23,600 -1,805 Descending Oakland Center
Sat 01:59:13 PM 38.1486 -122.8556 172° South 409 471 22,200 -1,561 Descending Oakland Center
Sat 02:00:14 PM 38.0569 -122.7881 150° Southeast 392 451 20,400 -1,869 Descending Oakland Center
Sat 02:01:15 PM 37.9653 -122.7225 151° Southeast 384 442 18,400 -2,016 Descending Oakland Center
Sat 02:02:16 PM 37.8775 -122.6567 149° Southeast 381 438 16,300 -2,198 Descending Oakland Center
Sat 02:02:56 PM 37.8167 -122.5833 136° Southeast 370 426 14,700 -1,980 Descending Northern Cal TRACON
Sat 02:03:56 PM 37.7333 -122.5000 142° Southeast 353 406 13,000 -1,350 Descending Northern Cal TRACON
Sat 02:04:56 PM 37.6667 -122.4333 142° Southeast 330 380 12,000 -574 Descending Northern Cal TRACON
Sat 02:05:51 PM 37.6000 -122.3667 142° Southeast 325 374 11,900 -282 Descending Northern Cal TRACON
Sat 02:06:21 PM 37.5694 -122.3381 143° Southeast 328 377 11,600 -1,109 Descending Oakland Center
Sat 02:07:23 PM 37.4911 -122.2939 156° South 309 356 10,200 -1,220 Descending Oakland Center
Sat 02:08:24 PM 37.4147 -122.2469 154° Southeast 306 352 9,100 -1,279 Descending Oakland Center
Sat 02:09:25 PM 37.3517 -122.1831 141° Southeast 303 349 7,600 -1,073 Descending Oakland Center
Sat 02:10:27 PM 37.3025 -122.1006 127° Southeast 296 341 6,900 -878 Descending Oakland Center
Sat 02:11:28 PM 37.2539 -122.0186 127° Southeast 294 338 5,800 -1,033 Descending Oakland Center
Sat 02:12:29 PM 37.2222 -121.9214 112° Southeast 262 302 4,800 -878 Descending Oakland Center
Sat 02:13:31 PM 37.2408 -121.8539 71° East 223 257 4,000 -1,073 Descending Oakland Center
Sat 02:14:32 PM 37.2822 -121.8447 10° North 191 220 2,600 -1,377 Descending Oakland Center
Sat 02:15:33 PM 37.3161 -121.8806 320° Northwest 170 196 1,200 -1,131 Descending Oakland Center
Sat 02:16:34 PM 37.3464 -121.9142 319° Northwest 156 180 300 -885 Descending Oakland Center

Login

Don't have an account? Register now (free) for customized features, flight alerts, and more!